Time;durP1;ratioP1;P1;durP2;ratioP2;P2;SDS_P1;SDS_P2;PMS_P1;PMS_P2;Temp;Humidity;BMP_temperature;BMP_pressure;BME280_temperature;BME280_humidity;BME280_pressure;Samples;Min_cycle;Max_cycle;Signal;HPM_P1;HPM_P2
2023/09/12 00:01:42;;;;;;;10.50;10.20;;;18.20;99.90;;;;;;6201852;23;20251;-84
2023/09/12 00:04:11;;;;;;;10.20;9.90;;;18.20;99.90;;;;;;6206185;23;20195;-84
2023/09/12 00:06:38;;;;;;;10.40;10.10;;;18.20;99.90;;;;;;6208969;23;20206;-84
2023/09/12 00:09:06;;;;;;;10.50;10.20;;;18.10;99.90;;;;;;6209068;23;20199;-84
2023/09/12 00:11:34;;;;;;;10.27;9.98;;;18.10;99.90;;;;;;6208826;23;20196;-85
2023/09/12 00:14:01;;;;;;;10.25;9.95;;;18.00;99.90;;;;;;6209171;23;20250;-84
2023/09/12 00:16:28;;;;;;;10.27;9.98;;;18.00;99.90;;;;;;6208072;23;20212;-84
2023/09/12 00:18:55;;;;;;;10.27;9.98;;;18.00;99.90;;;;;;6205388;23;20290;-84
2023/09/12 00:21:22;;;;;;;10.15;9.85;;;17.90;99.90;;;;;;6204766;23;20278;-84
2023/09/12 00:23:49;;;;;;;9.98;9.68;;;17.90;99.90;;;;;;6203677;23;20222;-84
2023/09/12 00:26:18;;;;;;;9.88;9.57;;;17.90;99.90;;;;;;6203206;23;20210;-84
2023/09/12 00:28:45;;;;;;;9.90;9.60;;;17.90;99.90;;;;;;6202918;23;20199;-84
2023/09/12 00:31:12;;;;;;;10.05;9.75;;;17.90;99.90;;;;;;6202611;23;20287;-84
2023/09/12 00:33:39;;;;;;;10.00;9.70;;;17.90;99.90;;;;;;6202134;23;20231;-84
2023/09/12 00:36:06;;;;;;;10.13;9.82;;;18.00;99.90;;;;;;6202353;23;20284;-84
2023/09/12 00:38:33;;;;;;;9.93;9.63;;;17.90;99.90;;;;;;6202264;23;20262;-84
2023/09/12 00:41:00;;;;;;;10.00;9.70;;;17.90;99.90;;;;;;6202121;23;20266;-84
2023/09/12 00:43:29;;;;;;;10.05;9.75;;;17.90;99.90;;;;;;6203116;23;20215;-84
2023/09/12 00:45:56;;;;;;;10.48;10.18;;;17.90;99.90;;;;;;6202925;23;20192;-84
2023/09/12 00:48:25;;;;;;;10.30;10.00;;;17.90;99.90;;;;;;6202427;23;20255;-84
2023/09/12 00:50:53;;;;;;;10.13;9.82;;;17.90;99.90;;;;;;6201785;23;20196;-84
2023/09/12 00:53:22;;;;;;;10.20;9.90;;;17.90;99.90;;;;;;6201629;23;20195;-84
2023/09/12 00:55:56;;;;;;;10.20;9.90;;;17.90;99.90;;;;;;6202698;23;20191;-84
2023/09/12 00:58:23;;;;;;;10.10;9.80;;;17.90;99.90;;;;;;6202275;23;20253;-84
2023/09/12 01:00:52;;;;;;;10.10;9.80;;;17.80;99.90;;;;;;6202009;23;20211;-84
2023/09/12 01:03:19;;;;;;;9.90;9.60;;;17.80;99.90;;;;;;6201823;23;20262;-84
2023/09/12 01:05:48;;;;;;;10.00;9.70;;;17.80;99.90;;;;;;6202559;23;20203;-84
2023/09/12 01:08:15;;;;;;;9.68;9.38;;;17.80;99.90;;;;;;6207263;23;20238;-85
2023/09/12 01:10:46;;;;;;;9.70;9.40;;;17.80;99.90;;;;;;6201731;23;20191;-84
2023/09/12 01:13:13;;;;;;;9.80;9.50;;;17.70;99.90;;;;;;6198697;23;20223;-84
2023/09/12 01:15:40;;;;;;;10.15;9.85;;;17.70;99.90;;;;;;6204652;23;20208;-84
2023/09/12 01:18:09;;;;;;;9.93;9.63;;;17.70;99.90;;;;;;6216619;23;20211;-85
2023/09/12 01:20:37;;;;;;;9.93;9.63;;;17.70;99.90;;;;;;6197979;23;20239;-85
2023/09/12 01:23:25;;;;;;;10.00;9.70;;;17.70;99.90;;;;;;6196958;23;20203;-84
2023/09/12 01:26:31;;;;;;;10.00;9.70;;;17.60;99.90;;;;;;6202952;23;20188;-84
2023/09/12 01:29:01;;;;;;;10.25;9.95;;;17.60;99.90;;;;;;6206859;23;20242;-84
2023/09/12 01:31:30;;;;;;;10.30;10.00;;;17.60;99.90;;;;;;6196173;23;20192;-84
2023/09/12 01:33:57;;;;;;;10.35;10.05;;;17.60;99.90;;;;;;6197684;23;20199;-84
2023/09/12 01:36:24;;;;;;;10.20;9.90;;;17.60;99.90;;;;;;6198513;23;20214;-84
2023/09/12 01:38:51;;;;;;;10.45;10.15;;;17.60;99.90;;;;;;6199155;23;20212;-84
2023/09/12 01:41:20;;;;;;;10.30;10.00;;;17.60;99.90;;;;;;6199552;23;20262;-85
2023/09/12 01:43:49;;;;;;;10.40;10.10;;;17.60;99.90;;;;;;6199499;23;20215;-84
2023/09/12 01:46:20;;;;;;;10.30;10.00;;;17.50;99.90;;;;;;6200059;23;20246;-84
2023/09/12 01:48:51;;;;;;;10.30;10.00;;;17.50;99.90;;;;;;6201106;23;20258;-84
2023/09/12 01:51:18;;;;;;;10.38;10.07;;;17.50;99.90;;;;;;6199791;23;20192;-84
2023/09/12 01:53:46;;;;;;;10.23;9.93;;;17.50;99.90;;;;;;6200825;23;20199;-84
2023/09/12 01:56:14;;;;;;;10.20;9.90;;;17.40;99.90;;;;;;6200921;23;20200;-84
2023/09/12 01:58:42;;;;;;;10.32;10.02;;;17.40;99.90;;;;;;6202675;23;20250;-85
2023/09/12 02:01:09;;;;;;;10.15;9.85;;;17.40;99.90;;;;;;6201880;23;20286;-84
2023/09/12 02:03:37;;;;;;;9.93;9.63;;;17.40;99.90;;;;;;6201582;23;20207;-83
2023/09/12 02:06:05;;;;;;;10.05;9.75;;;17.40;99.90;;;;;;6201830;23;20282;-84
2023/09/12 02:08:32;;;;;;;9.90;9.60;;;17.30;99.90;;;;;;6201668;23;20215;-83
2023/09/12 02:10:59;;;;;;;9.88;9.57;;;17.30;99.90;;;;;;6201013;23;20219;-84
2023/09/12 02:13:26;;;;;;;10.00;9.70;;;17.20;99.90;;;;;;6201009;23;20294;-84
2023/09/12 02:16:00;;;;;;;9.88;9.57;;;17.20;99.90;;;;;;6203837;23;20231;-84
2023/09/12 02:18:27;;;;;;;10.20;9.90;;;17.20;99.90;;;;;;6204993;23;20211;-83
2023/09/12 02:20:55;;;;;;;10.30;10.00;;;17.20;99.90;;;;;;6202139;23;20192;-83
2023/09/12 02:23:23;;;;;;;10.20;9.90;;;17.10;99.90;;;;;;6201561;23;20203;-83
2023/09/12 02:25:50;;;;;;;10.20;9.90;;;17.10;99.90;;;;;;6201237;23;20274;-83
2023/09/12 02:28:17;;;;;;;10.18;9.88;;;17.10;99.90;;;;;;6201077;23;20228;-83
2023/09/12 02:30:44;;;;;;;10.10;9.80;;;17.10;99.90;;;;;;6201755;23;20204;-83
2023/09/12 02:33:11;;;;;;;10.30;10.00;;;17.10;99.90;;;;;;6201117;23;20222;-83
2023/09/12 02:35:38;;;;;;;10.15;9.85;;;17.00;99.90;;;;;;6201069;23;20195;-83
2023/09/12 02:38:07;;;;;;;10.07;9.77;;;17.00;99.90;;;;;;6200919;23;20232;-83
2023/09/12 02:40:34;;;;;;;10.15;9.85;;;17.00;99.90;;;;;;6200782;23;20290;-83
2023/09/12 02:43:01;;;;;;;10.20;9.90;;;17.00;99.90;;;;;;6201346;23;20203;-83
2023/09/12 02:45:28;;;;;;;10.05;9.75;;;16.90;99.90;;;;;;6202361;23;20207;-83
2023/09/12 02:47:55;;;;;;;9.93;9.63;;;16.90;99.90;;;;;;6201989;23;20206;-83
2023/09/12 02:50:22;;;;;;;9.70;9.40;;;16.90;99.90;;;;;;6202394;23;20208;-83
2023/09/12 02:52:49;;;;;;;9.65;9.35;;;16.80;99.90;;;;;;6202169;23;20203;-83
2023/09/12 02:55:18;;;;;;;9.70;9.40;;;16.80;99.90;;;;;;6205339;23;20206;-83
2023/09/12 02:57:46;;;;;;;9.70;9.40;;;16.80;99.90;;;;;;6210043;23;20188;-83
2023/09/12 03:00:14;;;;;;;9.63;9.32;;;16.80;99.90;;;;;;6210518;23;20294;-83
2023/09/12 03:02:41;;;;;;;9.70;9.40;;;16.80;99.90;;;;;;6209092;23;20191;-83
2023/09/12 03:05:09;;;;;;;9.65;9.35;;;16.80;99.90;;;;;;6205301;23;20196;-83
2023/09/12 03:07:36;;;;;;;9.73;9.43;;;16.70;99.90;;;;;;6204445;23;20204;-83
2023/09/12 03:10:04;;;;;;;9.40;9.10;;;16.60;99.90;;;;;;6203733;23;20200;-83
2023/09/12 03:12:33;;;;;;;9.73;9.43;;;16.50;99.90;;;;;;6202041;23;20203;-83
2023/09/12 03:15:00;;;;;;;9.52;9.23;;;16.50;99.90;;;;;;6202966;23;20286;-83
2023/09/12 03:17:29;;;;;;;9.48;9.18;;;16.50;99.90;;;;;;6202906;23;20198;-83
2023/09/12 03:19:56;;;;;;;9.52;9.23;;;16.40;99.90;;;;;;6202616;23;20222;-84
2023/09/12 03:22:23;;;;;;;9.73;9.43;;;16.40;99.90;;;;;;6202452;23;20191;-83
2023/09/12 03:24:50;;;;;;;9.73;9.43;;;16.40;99.90;;;;;;6201694;23;20283;-82
2023/09/12 03:27:17;;;;;;;9.60;9.30;;;16.30;99.90;;;;;;6202244;23;20251;-83
2023/09/12 03:29:49;;;;;;;9.88;9.57;;;16.30;99.90;;;;;;6202074;23;20276;-83
2023/09/12 03:32:16;;;;;;;9.65;9.35;;;16.30;99.90;;;;;;6202519;23;20231;-83
2023/09/12 03:34:44;;;;;;;9.68;9.38;;;16.30;99.90;;;;;;6202081;23;20196;-82
2023/09/12 03:37:11;;;;;;;9.40;9.10;;;16.30;99.90;;;;;;6201868;23;20192;-83
2023/09/12 03:39:38;;;;;;;9.68;9.38;;;16.30;99.90;;;;;;6202076;23;20214;-83
2023/09/12 03:42:06;;;;;;;9.77;9.48;;;16.30;99.90;;;;;;6201431;23;20287;-83
2023/09/12 03:44:33;;;;;;;9.60;9.30;;;16.30;99.90;;;;;;6201649;23;20195;-83
2023/09/12 03:47:01;;;;;;;9.70;9.40;;;16.30;99.90;;;;;;6200894;23;20199;-83
2023/09/12 03:49:29;;;;;;;9.65;9.35;;;16.30;99.90;;;;;;6200708;23;20232;-83
2023/09/12 03:51:56;;;;;;;9.52;9.23;;;16.20;99.90;;;;;;6200675;23;20208;-83
2023/09/12 03:54:23;;;;;;;9.73;9.43;;;16.30;99.90;;;;;;6201161;23;20226;-83
2023/09/12 03:56:50;;;;;;;9.48;9.18;;;16.20;99.90;;;;;;6201760;23;20239;-84
2023/09/12 03:59:18;;;;;;;9.40;9.10;;;16.20;99.90;;;;;;6202366;23;20286;-83
2023/09/12 04:01:45;;;;;;;9.57;9.27;;;16.20;99.90;;;;;;6201297;23;20204;-83
2023/09/12 04:04:13;;;;;;;9.57;9.27;;;16.30;99.90;;;;;;6201975;23;20211;-83
2023/09/12 04:06:41;;;;;;;9.70;9.40;;;16.20;99.90;;;;;;6203409;23;20187;-84
2023/09/12 04:09:08;;;;;;;9.88;9.57;;;16.20;99.90;;;;;;6203609;23;20207;-83
2023/09/12 04:11:36;;;;;;;9.75;9.45;;;16.20;99.90;;;;;;6202292;23;20195;-83
2023/09/12 04:14:03;;;;;;;9.57;9.27;;;16.20;99.90;;;;;;6204584;23;20682;-83
2023/09/12 04:16:30;;;;;;;9.70;9.40;;;16.20;99.90;;;;;;6204143;23;20199;-83
2023/09/12 04:18:57;;;;;;;9.60;9.30;;;16.20;99.90;;;;;;6201808;23;20235;-83
2023/09/12 04:21:26;;;;;;;9.98;9.68;;;16.20;99.90;;;;;;6201113;23;20250;-83
2023/09/12 04:23:53;;;;;;;9.73;9.43;;;16.10;99.90;;;;;;6201959;23;20199;-83
2023/09/12 04:26:20;;;;;;;9.75;9.45;;;16.10;99.90;;;;;;6201431;23;20203;-83
2023/09/12 04:28:48;;;;;;;10.20;9.90;;;16.10;99.90;;;;;;6201008;23;20223;-83
2023/09/12 04:31:15;;;;;;;10.25;9.95;;;16.10;99.90;;;;;;6201225;23;20294;-83
2023/09/12 04:33:42;;;;;;;10.50;10.20;;;16.10;99.90;;;;;;6201899;23;20212;-83
2023/09/12 04:36:09;;;;;;;10.40;10.10;;;16.10;99.90;;;;;;6207010;23;20203;-84
2023/09/12 04:38:38;;;;;;;10.00;9.70;;;16.10;99.90;;;;;;6208095;23;20199;-83
2023/09/12 04:41:05;;;;;;;10.20;9.90;;;16.10;99.90;;;;;;6205885;23;20271;-84
2023/09/12 04:43:33;;;;;;;10.20;9.90;;;16.10;99.90;;;;;;6205038;23;20195;-84
2023/09/12 04:46:00;;;;;;;10.20;9.90;;;16.10;99.90;;;;;;6204788;23;20191;-83
2023/09/12 04:48:27;;;;;;;10.30;10.00;;;16.10;99.90;;;;;;6204044;23;20211;-84
2023/09/12 04:50:55;;;;;;;10.20;9.90;;;16.00;99.90;;;;;;6202721;23;20203;-83
2023/09/12 04:53:22;;;;;;;10.35;10.05;;;16.10;99.90;;;;;;6203215;23;20195;-83
2023/09/12 04:55:53;;;;;;;10.05;9.75;;;16.00;99.90;;;;;;6204752;23;20192;-84
2023/09/12 04:58:20;;;;;;;10.00;9.70;;;16.00;99.90;;;;;;6203957;23;20200;-84
2023/09/12 05:00:47;;;;;;;10.10;9.80;;;16.00;99.90;;;;;;6201234;23;20196;-83
2023/09/12 05:03:14;;;;;;;10.10;9.80;;;16.00;99.90;;;;;;6201219;23;20199;-83
2023/09/12 05:05:42;;;;;;;9.95;9.65;;;16.00;99.90;;;;;;6201919;23;20219;-84
2023/09/12 05:08:09;;;;;;;10.10;9.80;;;16.00;99.90;;;;;;6203934;23;20286;-83
2023/09/12 05:10:37;;;;;;;10.00;9.70;;;16.00;99.90;;;;;;6205170;23;20211;-83
2023/09/12 05:13:05;;;;;;;9.98;9.68;;;16.00;99.90;;;;;;6201786;23;20192;-83
2023/09/12 05:15:32;;;;;;;9.90;9.60;;;16.00;99.90;;;;;;6201244;23;20195;-83
2023/09/12 05:18:00;;;;;;;9.93;9.63;;;16.00;99.90;;;;;;6201423;23;20203;-84
2023/09/12 05:20:27;;;;;;;9.70;9.40;;;16.00;99.90;;;;;;6203658;23;20203;-83
2023/09/12 05:22:54;;;;;;;9.88;9.57;;;16.10;99.90;;;;;;6202775;23;20204;-84
2023/09/12 05:25:21;;;;;;;10.00;9.70;;;16.00;99.90;;;;;;6203174;23;20199;-84
2023/09/12 05:27:48;;;;;;;9.85;9.55;;;16.00;99.90;;;;;;6203277;23;20251;-84
2023/09/12 05:30:17;;;;;;;9.93;9.63;;;16.00;99.90;;;;;;6201093;23;20199;-84
2023/09/12 05:32:44;;;;;;;9.60;9.30;;;16.00;99.90;;;;;;6201864;23;20200;-84
2023/09/12 05:35:12;;;;;;;9.90;9.60;;;16.10;99.90;;;;;;6205249;23;20202;-83
2023/09/12 05:37:39;;;;;;;9.73;9.43;;;16.20;99.90;;;;;;6211661;23;20196;-83
2023/09/12 05:40:09;;;;;;;10.05;9.75;;;16.20;99.90;;;;;;6205638;23;20200;-84
2023/09/12 05:42:36;;;;;;;9.75;9.45;;;16.30;99.90;;;;;;6204226;23;20196;-85
2023/09/12 05:45:04;;;;;;;9.40;9.10;;;16.40;99.90;;;;;;6203886;23;20192;-84
2023/09/12 05:47:32;;;;;;;9.60;9.30;;;16.40;99.90;;;;;;6204092;23;20223;-84
2023/09/12 05:50:00;;;;;;;9.45;9.15;;;16.50;99.90;;;;;;6203336;23;20203;-84
2023/09/12 05:52:27;;;;;;;9.50;9.20;;;16.60;99.90;;;;;;6203450;23;20196;-84
2023/09/12 05:54:55;;;;;;;9.27;8.98;;;16.60;99.90;;;;;;6203351;23;20223;-85
2023/09/12 05:57:22;;;;;;;9.18;8.88;;;16.70;99.90;;;;;;6203354;23;20262;-84
2023/09/12 05:59:49;;;;;;;9.32;9.02;;;16.80;99.90;;;;;;6202421;23;20210;-84
2023/09/12 06:02:17;;;;;;;9.60;9.30;;;16.90;99.90;;;;;;6204456;23;20671;-85
2023/09/12 06:04:46;;;;;;;9.77;9.48;;;16.90;99.90;;;;;;6204182;23;20195;-84
2023/09/12 06:07:13;;;;;;;9.88;9.57;;;17.00;99.90;;;;;;6203841;23;20196;-84
2023/09/12 06:09:40;;;;;;;9.80;9.50;;;17.00;99.90;;;;;;6204020;23;20258;-84
2023/09/12 06:12:08;;;;;;;9.68;9.38;;;17.10;99.90;;;;;;6202544;23;20203;-84
2023/09/12 06:14:35;;;;;;;9.48;9.18;;;17.20;99.90;;;;;;6201806;23;20202;-84
2023/09/12 06:17:02;;;;;;;9.70;9.40;;;17.30;99.90;;;;;;6203063;23;20191;-85
2023/09/12 06:19:30;;;;;;;9.80;9.50;;;17.30;99.90;;;;;;6204372;23;20219;-84
2023/09/12 06:21:58;;;;;;;10.00;9.70;;;17.40;99.90;;;;;;6216926;22;20202;-84
2023/09/12 06:24:26;;;;;;;9.80;9.50;;;17.40;99.90;;;;;;6196589;23;20203;-84
2023/09/12 06:26:54;;;;;;;10.00;9.70;;;17.40;99.90;;;;;;6200385;23;20251;-84
2023/09/12 06:29:21;;;;;;;10.13;9.82;;;17.50;99.90;;;;;;6202983;23;20199;-85
2023/09/12 06:31:48;;;;;;;10.35;10.05;;;17.50;99.90;;;;;;6211689;23;20192;-84
2023/09/12 06:34:15;;;;;;;10.13;9.82;;;17.60;99.90;;;;;;6197352;23;20223;-84
2023/09/12 06:36:44;;;;;;;10.32;10.02;;;17.60;99.90;;;;;;6196874;23;20203;-84
2023/09/12 06:39:13;;;;;;;10.63;10.32;;;17.70;99.90;;;;;;6206300;23;20223;-84
2023/09/12 06:41:40;;;;;;;10.60;10.30;;;17.80;99.90;;;;;;6208978;23;20222;-84
2023/09/12 06:44:07;;;;;;;10.55;10.25;;;17.90;99.90;;;;;;6196400;23;20278;-84
2023/09/12 06:46:36;;;;;;;10.73;10.43;;;18.00;99.90;;;;;;6198550;23;20192;-84
2023/09/12 06:49:04;;;;;;;10.50;10.20;;;18.20;99.90;;;;;;6198184;23;20199;-83
2023/09/12 06:51:31;;;;;;;10.60;10.30;;;18.30;99.90;;;;;;6199143;23;20208;-83
2023/09/12 06:53:59;;;;;;;10.63;10.32;;;18.30;99.90;;;;;;6200181;23;20199;-84
2023/09/12 06:56:28;;;;;;;10.60;10.30;;;18.40;99.90;;;;;;6200413;23;20206;-84
2023/09/12 06:58:55;;;;;;;10.25;9.95;;;18.50;99.90;;;;;;6201255;23;20203;-85
2023/09/12 07:01:22;;;;;;;10.48;10.18;;;18.60;99.90;;;;;;6200117;23;20204;-84
2023/09/12 07:03:53;;;;;;;10.80;10.50;;;18.70;99.90;;;;;;6201017;23;20208;-83
2023/09/12 07:06:20;;;;;;;10.77;10.48;;;18.80;99.90;;;;;;6202847;23;20196;-84
2023/09/12 07:08:48;;;;;;;10.75;10.45;;;18.90;99.90;;;;;;6204051;23;20219;-84
2023/09/12 07:11:15;;;;;;;10.73;10.43;;;19.00;99.90;;;;;;6202591;23;20215;-84
2023/09/12 07:13:43;;;;;;;10.95;10.65;;;19.20;99.90;;;;;;6201048;23;20220;-84
2023/09/12 07:16:11;;;;;;;10.80;10.50;;;19.30;99.90;;;;;;6202815;23;20198;-83
2023/09/12 07:18:39;;;;;;;11.07;10.77;;;19.40;99.90;;;;;;6201056;23;20266;-83
2023/09/12 07:21:07;;;;;;;10.80;10.50;;;19.50;99.90;;;;;;6201620;23;20287;-83
2023/09/12 07:23:35;;;;;;;10.80;10.50;;;19.70;99.90;;;;;;6202357;23;20215;-85
2023/09/12 07:26:02;;;;;;;10.90;10.60;;;19.90;99.90;;;;;;6201061;23;20203;-83
2023/09/12 07:28:32;;;;;;;10.73;10.43;;;20.00;99.90;;;;;;6201832;23;20191;-83
2023/09/12 07:31:01;;;;;;;10.90;10.60;;;20.20;99.90;;;;;;6203957;23;20202;-83
2023/09/12 07:33:28;;;;;;;10.90;10.60;;;20.40;99.90;;;;;;6202871;23;20203;-83
2023/09/12 07:35:55;;;;;;;11.00;10.70;;;20.60;99.90;;;;;;6204183;23;20192;-83
2023/09/12 07:38:23;;;;;;;10.90;10.60;;;20.70;99.90;;;;;;6204785;23;20215;-83
2023/09/12 07:40:53;;;;;;;11.13;10.82;;;20.90;99.90;;;;;;6204444;23;20199;-83
2023/09/12 07:43:20;;;;;;;11.05;10.75;;;21.10;99.90;;;;;;6202965;23;20191;-83
2023/09/12 07:45:49;;;;;;;10.93;10.63;;;21.20;99.90;;;;;;6203964;23;20206;-83
2023/09/12 07:48:17;;;;;;;11.20;10.90;;;21.30;99.90;;;;;;6204421;23;20191;-84
2023/09/12 07:50:45;;;;;;;11.50;11.10;;;21.50;99.90;;;;;;6203915;23;20282;-83
2023/09/12 07:53:12;;;;;;;11.00;10.70;;;21.60;99.90;;;;;;6203691;23;20251;-83
2023/09/12 07:55:45;;;;;;;11.10;10.80;;;21.80;99.90;;;;;;6204831;23;20888;-83
2023/09/12 07:58:13;;;;;;;10.98;10.68;;;21.90;99.90;;;;;;6204391;23;20184;-83
2023/09/12 08:00:40;;;;;;;10.80;10.50;;;22.00;99.90;;;;;;6204437;23;20231;-83
2023/09/12 08:03:07;;;;;;;10.95;10.65;;;22.20;99.90;;;;;;6202599;23;20223;-83
2023/09/12 08:05:36;;;;;;;10.93;10.63;;;22.30;99.90;;;;;;6203456;23;20196;-83
2023/09/12 08:08:03;;;;;;;11.18;10.88;;;22.40;99.90;;;;;;6205279;23;20196;-83
2023/09/12 08:10:30;;;;;;;11.20;10.90;;;22.50;99.90;;;;;;6204420;23;20203;-84
2023/09/12 08:12:57;;;;;;;11.50;11.10;;;22.60;99.90;;;;;;6204084;23;20207;-83
2023/09/12 08:15:25;;;;;;;11.18;10.88;;;22.70;99.90;;;;;;6205608;23;20208;-84
2023/09/12 08:17:53;;;;;;;10.93;10.63;;;22.90;99.90;;;;;;6207723;23;20192;-84
2023/09/12 08:21:11;;;;;;;10.77;10.48;;;23.00;99.90;;;;;;6199397;22;20208;-91
2023/09/12 08:27:56;;;;;;;10.32;10.02;;;23.30;99.90;;;;;;6200075;23;20294;-92
2023/09/12 08:33:36;;;;;;;;;;;;;;;;;;;;;
2023/09/12 08:36:48;;;;;;;10.38;10.07;;;23.80;99.90;;;;;;6201467;23;20183;-92
2023/09/12 08:39:45;;;;;;;10.40;10.10;;;24.10;99.90;;;;;;6211673;23;20263;-92
2023/09/12 08:43:10;;;;;;;;;;;;;;;;;;;;;
2023/09/12 08:46:04;;;;;;;10.80;10.50;;;24.50;99.90;;;;;;6209871;23;20206;-92
2023/09/12 08:49:09;;;;;;;10.70;10.40;;;24.70;99.90;;;;;;6219583;22;20182;-91
2023/09/12 09:03:21;;;;;;;10.63;10.32;;;26.20;99.90;;;;;;6191683;22;20199;-93
2023/09/12 09:20:26;;;;;;;10.43;10.13;;;27.70;99.90;;;;;;6169540;23;20200;-93
2023/09/12 09:24:22;;;;;;;10.43;10.13;;;27.90;99.90;;;;;;6171626;23;20212;-93
2023/09/12 11:47:34;;;;;;;10.95;10.65;;;36.00;99.90;;;;;;6029081;23;20256;-91
2023/09/12 11:50:22;;;;;;;11.40;11.02;;;36.00;99.90;;;;;;6071848;23;20233;-91
2023/09/12 12:00:51;;;;;;;;;;;;;;;;;;;;;
2023/09/12 12:03:55;;;;;;;;;;;;;;;;;;;;;
2023/09/12 12:37:04;;;;;;;;;;;;;;;;;;;;;
2023/09/12 12:47:32;;;;;;;10.77;10.48;;;37.00;99.90;;;;;;6120292;23;20196;-93
2023/09/12 13:32:15;;;;;;;11.82;11.43;;;38.30;99.90;;;;;;6017595;23;20401;-93
2023/09/12 13:35:48;;;;;;;11.38;11.07;;;38.10;99.90;;;;;;6140118;23;20212;-93
2023/09/12 13:39:06;;;;;;;11.52;11.23;;;38.20;99.90;;;;;;6144707;23;20203;-93
2023/09/12 13:42:20;;;;;;;11.65;11.25;;;38.30;99.90;;;;;;6144006;23;20207;-93
2023/09/12 13:49:00;;;;;;;11.35;11.05;;;38.50;99.90;;;;;;6135099;23;20278;-93
2023/09/12 13:51:56;;;;;;;11.52;11.23;;;38.60;99.90;;;;;;6151177;23;20188;-93
2023/09/12 14:01:03;;;;;;;11.32;11.02;;;38.50;99.90;;;;;;6048816;23;20222;-91
2023/09/12 14:03:57;;;;;;;11.18;10.88;;;38.40;99.90;;;;;;6139051;23;20271;-92
2023/09/12 14:07:38;;;;;;;;;;;;;;;;;;;;;
2023/09/12 14:20:28;;;;;;;10.77;10.48;;;38.50;99.90;;;;;;6163998;23;20207;-81
2023/09/12 14:22:56;;;;;;;10.90;10.60;;;38.70;99.90;;;;;;6200633;23;20218;-81
2023/09/12 14:25:24;;;;;;;10.98;10.68;;;38.70;99.90;;;;;;6202242;23;20245;-81
2023/09/12 14:27:52;;;;;;;11.07;10.77;;;38.90;99.90;;;;;;6202485;23;20262;-80
2023/09/12 14:30:20;;;;;;;10.95;10.65;;;38.90;99.90;;;;;;6201845;23;20270;-82
2023/09/12 14:32:47;;;;;;;10.63;10.32;;;39.00;99.90;;;;;;6201564;23;20197;-81
2023/09/12 14:35:15;;;;;;;10.85;10.55;;;38.80;99.90;;;;;;6201649;23;20190;-82
2023/09/12 14:37:42;;;;;;;10.95;10.65;;;38.40;99.90;;;;;;6201083;23;20234;-82
2023/09/12 14:40:11;;;;;;;10.88;10.57;;;38.30;99.90;;;;;;6201678;23;20262;-82
2023/09/12 14:42:38;;;;;;;10.90;10.60;;;38.40;99.90;;;;;;6201540;23;20203;-82
2023/09/12 14:45:09;;;;;;;10.65;10.35;;;38.40;99.90;;;;;;6203304;23;20246;-81
2023/09/12 14:47:36;;;;;;;10.60;10.30;;;38.70;99.90;;;;;;6203149;23;20206;-82
2023/09/12 14:50:03;;;;;;;10.52;10.23;;;38.90;99.90;;;;;;6203508;23;20261;-83
2023/09/12 14:52:30;;;;;;;10.73;10.43;;;38.90;99.90;;;;;;6202257;23;20210;-82
2023/09/12 14:54:57;;;;;;;10.63;10.32;;;38.90;99.90;;;;;;6203885;23;20210;-82
2023/09/12 14:57:27;;;;;;;10.55;10.25;;;39.00;99.90;;;;;;6203576;23;20234;-82
2023/09/12 14:59:55;;;;;;;10.57;10.27;;;38.90;99.90;;;;;;6203474;23;20199;-82
2023/09/12 15:02:30;;;;;;;10.60;10.30;;;38.50;99.90;;;;;;6202152;23;20191;-82
2023/09/12 15:04:58;;;;;;;10.60;10.30;;;38.50;99.90;;;;;;6203894;23;20238;-82
2023/09/12 15:07:25;;;;;;;10.57;10.27;;;38.80;99.90;;;;;;6204579;23;20195;-82
2023/09/12 15:09:52;;;;;;;10.32;10.02;;;38.90;99.90;;;;;;6203565;23;20203;-82
2023/09/12 15:12:19;;;;;;;10.15;9.85;;;39.10;99.90;;;;;;6202829;23;20217;-81
2023/09/12 15:14:46;;;;;;;10.45;10.15;;;39.10;99.90;;;;;;6203139;23;20245;-82
2023/09/12 15:17:13;;;;;;;10.55;10.25;;;39.20;99.90;;;;;;6203339;23;20214;-82
2023/09/12 15:19:42;;;;;;;10.38;10.07;;;39.30;99.90;;;;;;6203257;23;20230;-82
2023/09/12 15:22:09;;;;;;;10.38;10.07;;;39.60;99.90;;;;;;6202590;23;20262;-82
2023/09/12 15:24:36;;;;;;;10.52;10.23;;;39.70;99.90;;;;;;6203432;23;20218;-82
2023/09/12 15:27:04;;;;;;;10.35;10.05;;;39.80;99.90;;;;;;6206895;23;20195;-81
2023/09/12 15:29:31;;;;;;;10.20;9.90;;;39.80;99.90;;;;;;6206950;23;20205;-82
2023/09/12 15:32:00;;;;;;;10.35;10.05;;;39.70;99.90;;;;;;6203556;23;20195;-82
2023/09/12 15:34:27;;;;;;;10.18;9.88;;;39.60;99.90;;;;;;6204929;23;20200;-81
2023/09/12 15:37:10;;;;;;;10.07;9.77;;;39.70;99.90;;;;;;6204300;23;20818;-80
2023/09/12 15:39:37;;;;;;;10.20;9.90;;;39.70;99.90;;;;;;6206187;23;20198;-81
2023/09/12 15:42:05;;;;;;;10.55;10.25;;;39.50;99.90;;;;;;6208552;23;20199;-81
2023/09/12 15:44:32;;;;;;;10.55;10.25;;;39.40;99.90;;;;;;6207793;23;20199;-80
2023/09/12 15:47:00;;;;;;;10.55;10.25;;;39.10;99.90;;;;;;6204807;23;20191;-81
2023/09/12 15:49:28;;;;;;;10.70;10.40;;;38.70;99.90;;;;;;6203800;23;20214;-80
2023/09/12 15:51:55;;;;;;;10.32;10.02;;;38.60;99.90;;;;;;6203072;23;20227;-81
2023/09/12 15:54:24;;;;;;;10.40;10.10;;;38.40;99.90;;;;;;6204261;23;20246;-80
2023/09/12 15:56:51;;;;;;;10.35;10.05;;;38.20;99.90;;;;;;6203837;23;20221;-80
2023/09/12 15:59:18;;;;;;;10.40;10.10;;;38.10;99.90;;;;;;6203572;23;20227;-80
2023/09/12 16:01:46;;;;;;;10.27;9.98;;;37.90;99.90;;;;;;6203434;23;20266;-80
2023/09/12 16:04:13;;;;;;;10.30;10.00;;;37.70;99.90;;;;;;6202905;23;20290;-80
2023/09/12 16:06:40;;;;;;;10.40;10.10;;;37.40;99.90;;;;;;6203032;23;20210;-80
2023/09/12 16:09:07;;;;;;;10.30;10.00;;;37.00;99.90;;;;;;6203112;23;20203;-83
2023/09/12 16:11:36;;;;;;;10.73;10.43;;;36.70;99.90;;;;;;6203301;23;20250;-82
2023/09/12 16:14:03;;;;;;;10.85;10.55;;;36.40;99.90;;;;;;6202887;23;20199;-80
2023/09/12 16:16:31;;;;;;;10.93;10.63;;;36.30;99.90;;;;;;6204187;23;20214;-80
2023/09/12 16:18:58;;;;;;;11.10;10.80;;;36.10;99.90;;;;;;6204252;23;20215;-80
2023/09/12 16:21:25;;;;;;;11.13;10.82;;;35.80;99.90;;;;;;6199828;23;20203;-82
2023/09/12 16:23:55;;;;;;;10.90;10.60;;;35.40;99.90;;;;;;6199191;23;20291;-79
2023/09/12 16:26:23;;;;;;;10.60;10.30;;;35.00;99.90;;;;;;6198103;23;20207;-80
2023/09/12 16:28:52;;;;;;;10.60;10.30;;;34.70;99.90;;;;;;6202154;23;20211;-81
2023/09/12 16:31:19;;;;;;;10.40;10.10;;;34.40;99.90;;;;;;6194455;23;20231;-77
2023/09/12 16:33:46;;;;;;;10.27;9.98;;;34.20;99.90;;;;;;6199436;23;20248;-79
2023/09/12 16:36:14;;;;;;;10.40;10.10;;;33.90;99.90;;;;;;6200028;23;20199;-80
2023/09/12 16:38:41;;;;;;;10.30;10.00;;;33.50;99.90;;;;;;6199209;23;20206;-79
2023/09/12 16:41:08;;;;;;;10.60;10.30;;;33.40;99.90;;;;;;6200993;23;20255;-80
2023/09/12 16:43:35;;;;;;;10.30;10.00;;;33.20;99.90;;;;;;6200922;23;20188;-80
2023/09/12 16:46:04;;;;;;;10.40;10.10;;;33.00;99.90;;;;;;6201770;23;20196;-80
2023/09/12 16:48:31;;;;;;;10.40;10.10;;;32.90;99.90;;;;;;6201941;23;20219;-78
2023/09/12 16:50:58;;;;;;;10.40;10.10;;;32.70;99.90;;;;;;6203818;23;20215;-79
2023/09/12 16:53:25;;;;;;;10.40;10.10;;;32.50;99.90;;;;;;6206258;22;20210;-80
2023/09/12 16:55:53;;;;;;;10.48;10.18;;;32.40;99.90;;;;;;6195885;23;20230;-80
2023/09/12 16:58:20;;;;;;;10.27;9.98;;;32.10;99.90;;;;;;6196489;23;20286;-79
2023/09/12 17:00:47;;;;;;;10.60;10.30;;;31.90;99.90;;;;;;6206539;23;20200;-79
2023/09/12 17:03:15;;;;;;;10.88;10.57;;;31.70;99.90;;;;;;6198872;23;20212;-80
2023/09/12 17:05:42;;;;;;;11.40;11.00;;;31.60;99.90;;;;;;6198116;23;20199;-81
2023/09/12 17:08:09;;;;;;;10.82;10.52;;;31.50;99.90;;;;;;6198885;23;20264;-80
2023/09/12 17:10:36;;;;;;;10.60;10.30;;;31.40;99.90;;;;;;6204020;23;20231;-79
2023/09/12 17:13:04;;;;;;;10.40;10.10;;;31.20;99.90;;;;;;6196319;23;20271;-79
2023/09/12 17:15:33;;;;;;;10.50;10.20;;;31.00;99.90;;;;;;6196435;23;20206;-79
2023/09/12 17:18:00;;;;;;;10.50;10.20;;;30.90;99.90;;;;;;6197868;23;20200;-79
2023/09/12 17:20:29;;;;;;;10.55;10.25;;;30.80;99.90;;;;;;6198336;23;20217;-79
2023/09/12 17:22:56;;;;;;;10.50;10.20;;;30.70;99.90;;;;;;6198797;23;20211;-79
2023/09/12 17:25:23;;;;;;;10.52;10.23;;;30.60;99.90;;;;;;6199331;23;20273;-79
2023/09/12 17:27:50;;;;;;;10.65;10.35;;;30.50;99.90;;;;;;6200146;23;20191;-79
2023/09/12 17:30:19;;;;;;;10.30;10.00;;;30.50;99.90;;;;;;6199759;23;20683;-79
2023/09/12 17:32:46;;;;;;;10.98;10.68;;;30.40;99.90;;;;;;6200221;23;20188;-79
2023/09/12 17:35:13;;;;;;;10.60;10.30;;;30.30;99.90;;;;;;6200985;23;20199;-80
2023/09/12 17:37:41;;;;;;;10.27;9.98;;;30.20;99.90;;;;;;6201337;23;20196;-79
2023/09/12 17:40:10;;;;;;;10.35;10.05;;;30.10;99.90;;;;;;6200467;23;20234;-79